| time (UTC) | temp F | wind direction | speed knots | gust knots | rain 1hr in | rain 24hr in | rain mn in | humidity % | barometer mb |
| 20260506192005 | 46 | 0 | 0.0 | 0.0 | 0.00 | 0.00 | 0.00 | 61 | 1011.2 |
| 20260506191003 | 46 | 0 | 0.0 | 0.0 | 0.00 | 0.00 | 0.00 | 62 | 1011.2 |
| 20260506190004 | 46 | 0 | 0.0 | 0.0 | 0.00 | 0.00 | 0.00 | 62 | 1011.3 |
| 20260506185006 | 46 | 341 | 0.0 | 0.9 | 0.00 | 0.00 | 0.00 | 62 | 1011.3 |
| 20260506184003 | 46 | 341 | 0.0 | 2.6 | 0.00 | 0.00 | 0.00 | 62 | 1011.2 |
| 20260506183003 | 46 | 341 | 0.0 | 0.9 | 0.00 | 0.00 | 0.00 | 63 | 1011.3 |
| 20260506182003 | 46 | 0 | 0.0 | 0.0 | 0.00 | 0.00 | 0.00 | 63 | 1011.3 |
| 20260506181003 | 46 | 0 | 0.0 | 0.0 | 0.00 | 0.00 | 0.00 | 63 | 1011.3 |
| 20260506180004 | 46 | 341 | 0.0 | 1.7 | 0.00 | 0.00 | 0.00 | 63 | 1011.4 |
| 20260506175003 | 46 | 341 | 0.0 | 1.7 | 0.00 | 0.00 | 0.00 | 63 | 1011.4 |
| 20260506174003 | 46 | 341 | 0.0 | 0.9 | 0.00 | 0.00 | 0.00 | 64 | 1011.4 |
| 20260506173003 | 47 | 341 | 0.0 | 0.9 | 0.00 | 0.00 | 0.00 | 63 | 1011.4 |
| 20260506172003 | 47 | 341 | 0.0 | 0.9 | 0.00 | 0.00 | 0.00 | 60 | 1011.3 |
| 20260506171003 | 47 | 341 | 0.0 | 0.9 | 0.00 | 0.00 | 0.00 | 60 | 1011.3 |
| 20260506170003 | 47 | 341 | 0.9 | 2.6 | 0.00 | 0.00 | 0.00 | 59 | 1011.2 |
| 20260506165005 | 47 | 341 | 0.0 | 0.9 | 0.00 | 0.00 | 0.00 | 58 | 1011.1 |
| 20260506164003 | 47 | 0 | 0.0 | 0.0 | 0.00 | 0.00 | 0.00 | 57 | 1011.1 |
| 20260506163003 | 47 | 341 | 0.0 | 0.9 | 0.00 | 0.00 | 0.00 | 56 | 1011.1 |
| 20260506162003 | 47 | 341 | 0.0 | 2.6 | 0.00 | 0.00 | 0.00 | 54 | 1011.0 |
| 20260506161006 | 47 | 341 | 0.9 | 3.5 | 0.00 | 0.00 | 0.00 | 53 | 1011.0 |
| 20260506160003 | 48 | 341 | 0.9 | 3.5 | 0.00 | 0.00 | 0.00 | 50 | 1010.9 |
| 20260506155004 | 48 | 341 | 0.9 | 3.5 | 0.00 | 0.00 | 0.00 | 48 | 1010.9 |
| 20260506154003 | 48 | 341 | 0.0 | 1.7 | 0.00 | 0.00 | 0.00 | 49 | 1011.0 |
| 20260506153003 | 48 | 341 | 0.9 | 1.7 | 0.00 | 0.00 | 0.00 | 48 | 1011.0 |
| 20260506152003 | 48 | 341 | 0.0 | 1.7 | 0.00 | 0.00 | 0.00 | 49 | 1011.0 |
| 20260506151003 | 48 | 341 | 0.0 | 1.7 | 0.00 | 0.00 | 0.00 | 50 | 1011.0 |
| 20260506150003 | 48 | 341 | 0.9 | 2.6 | 0.00 | 0.00 | 0.00 | 49 | 1010.9 |
| 20260506145003 | 49 | 341 | 0.9 | 2.6 | 0.00 | 0.00 | 0.00 | 48 | 1010.9 |
| 20260506144003 | 49 | 341 | 0.9 | 3.5 | 0.00 | 0.00 | 0.00 | 48 | 1010.8 |
| 20260506143003 | 49 | 341 | 0.9 | 2.6 | 0.00 | 0.00 | 0.00 | 48 | 1010.8 |
| 20260506142003 | 49 | 342 | 0.9 | 6.1 | 0.00 | 0.00 | 0.00 | 49 | 1010.6 |
| 20260506141004 | 48 | 343 | 1.7 | 5.2 | 0.00 | 0.00 | 0.00 | 47 | 1010.6 |
| 20260506140003 | 48 | 341 | 0.9 | 5.2 | 0.00 | 0.00 | 0.00 | 51 | 1010.6 |
| 20260506135003 | 49 | 341 | 2.6 | 5.2 | 0.00 | 0.00 | 0.00 | 51 | 1010.5 |
| 20260506134003 | 50 | 341 | 0.9 | 3.5 | 0.00 | 0.00 | 0.00 | 48 | 1010.5 |
| 20260506133005 | 50 | 342 | 1.7 | 6.1 | 0.00 | 0.00 | 0.00 | 48 | 1010.5 |
| 20260506132003 | 50 | 342 | 0.9 | 4.3 | 0.00 | 0.00 | 0.00 | 47 | 1010.5 |
| 20260506131003 | 51 | 342 | 0.0 | 1.7 | 0.00 | 0.00 | 0.00 | 45 | 1010.4 |
| 20260506130004 | 50 | 342 | 0.9 | 3.5 | 0.00 | 0.00 | 0.00 | 43 | 1010.4 |
| 20260506125003 | 51 | 342 | 0.9 | 4.3 | 0.00 | 0.00 | 0.00 | 43 | 1010.3 |
| 20260506124003 | 50 | 342 | 0.9 | 2.6 | 0.00 | 0.00 | 0.00 | 43 | 1010.3 |
| 20260506123003 | 50 | 342 | 0.9 | 3.5 | 0.00 | 0.00 | 0.00 | 42 | 1010.3 |
| 20260506122003 | 50 | 342 | 1.7 | 3.5 | 0.00 | 0.00 | 0.00 | 45 | 1010.4 |
| 20260506121003 | 50 | 342 | 0.9 | 3.5 | 0.00 | 0.00 | 0.00 | 46 | 1010.3 |
| 20260506120003 | 50 | 342 | 0.9 | 3.5 | 0.00 | 0.00 | 0.00 | 47 | 1010.4 |
| 20260506115003 | 50 | 342 | 0.9 | 3.5 | 0.00 | 0.00 | 0.00 | 44 | 1010.3 |
| 20260506114006 | 50 | 342 | 0.9 | 3.5 | 0.00 | 0.00 | 0.00 | 45 | 1010.2 |
| 20260506113003 | 50 | 342 | 0.9 | 2.6 | 0.00 | 0.00 | 0.00 | 47 | 1010.3 |
| 20260506112003 | 50 | 342 | 0.9 | 3.5 | 0.00 | 0.00 | 0.00 | 46 | 1010.2 |
| 20260506111006 | 50 | 342 | 0.9 | 2.6 | 0.00 | 0.00 | 0.00 | 43 | 1010.2 |
| 20260506110003 | 50 | 342 | 0.9 | 3.5 | 0.00 | 0.00 | 0.00 | 47 | 1010.1 |
| 20260506105003 | 49 | 342 | 1.7 | 5.2 | 0.00 | 0.00 | 0.00 | 47 | 1010.0 |
| 20260506104003 | 49 | 343 | 1.7 | 6.1 | 0.00 | 0.00 | 0.00 | 48 | 1010.0 |
| 20260506103003 | 49 | 342 | 0.9 | 6.1 | 0.00 | 0.00 | 0.00 | 50 | 1009.8 |
| 20260506102003 | 49 | 342 | 1.7 | 5.2 | 0.00 | 0.00 | 0.00 | 50 | 1009.7 |
| 20260506101003 | 49 | 341 | 0.9 | 4.3 | 0.00 | 0.00 | 0.00 | 51 | 1009.6 |
| 20260506100003 | 49 | 341 | 2.6 | 7.0 | 0.00 | 0.00 | 0.00 | 50 | 1009.4 |
| 20260506095003 | 50 | 342 | 2.6 | 7.0 | 0.00 | 0.00 | 0.00 | 49 | 1009.3 |
| 20260506094003 | 51 | 349 | 0.9 | 5.2 | 0.00 | 0.00 | 0.00 | 50 | 1009.2 |
| 20260506093003 | 50 | 342 | 1.7 | 5.2 | 0.00 | 0.00 | 0.00 | 51 | 1009.1 |
| 20260506092003 | 51 | 342 | 0.9 | 3.5 | 0.00 | 0.00 | 0.00 | 54 | 1008.9 |
| 20260506091003 | 50 | 342 | 1.7 | 7.0 | 0.00 | 0.00 | 0.00 | 56 | 1008.6 |
| 20260506090003 | 51 | 342 | 0.9 | 5.2 | 0.00 | 0.00 | 0.00 | 55 | 1008.5 |
| 20260506085003 | 51 | 342 | 0.9 | 5.2 | 0.00 | 0.00 | 0.00 | 55 | 1008.4 |
| 20260506084003 | 51 | 341 | 0.9 | 4.3 | 0.00 | 0.00 | 0.00 | 60 | 1008.4 |
| 20260506083006 | 50 | 341 | 1.7 | 5.2 | 0.00 | 0.00 | 0.00 | 61 | 1008.3 |
| 20260506082004 | 50 | 342 | 0.9 | 3.5 | 0.00 | 0.00 | 0.00 | 64 | 1008.3 |
| 20260506081003 | 51 | 342 | 0.9 | 3.5 | 0.00 | 0.00 | 0.00 | 61 | 1008.2 |
| 20260506073003 | 50 | 342 | 0.9 | 2.6 | 0.00 | 0.00 | 0.00 | 67 | 1007.7 |
| 20260506072003 | 50 | 342 | 0.9 | 2.6 | 0.00 | 0.00 | 0.00 | 67 | 1007.6 |
| 20260506071003 | 49 | 342 | 0.9 | 2.6 | 0.00 | 0.00 | 0.00 | 71 | 1007.6 |
| 20260506062003 | 46 | 342 | 0.9 | 2.6 | 0.00 | 0.00 | 0.00 | 74 | 1007.1 |
| 20260506061003 | 46 | 342 | 0.9 | 3.5 | 0.00 | 0.00 | 0.00 | 75 | 1007.0 |
| 20260506051003 | 44 | 342 | 0.9 | 2.6 | 0.00 | 0.00 | 0.00 | 79 | 1006.3 |
| 20260506045003 | 43 | 342 | 0.9 | 4.3 | 0.00 | 0.00 | 0.00 | 80 | 1005.9 |
| 20260506044003 | 43 | 342 | 0.9 | 5.2 | 0.00 | 0.00 | 0.00 | 81 | 1005.7 |
| 20260506043003 | 43 | 342 | 0.9 | 3.5 | 0.00 | 0.00 | 0.00 | 82 | 1005.5 |
| 20260506042003 | 42 | 342 | 0.9 | 4.3 | 0.00 | 0.00 | 0.00 | 83 | 1005.5 |
| 20260506041003 | 43 | 342 | 0.9 | 1.7 | 0.00 | 0.00 | 0.00 | 85 | 1005.4 |
| 20260506040003 | 42 | 342 | 0.9 | 2.6 | 0.00 | 0.00 | 0.00 | 86 | 1005.3 |
| 20260506035003 | 42 | 342 | 0.9 | 3.5 | 0.00 | 0.00 | 0.00 | 87 | 1005.2 |
| 20260506034003 | 42 | 342 | 0.0 | 1.7 | 0.00 | 0.00 | 0.00 | 87 | 1005.0 |
| 20260506033004 | 42 | 342 | 0.9 | 2.6 | 0.00 | 0.00 | 0.00 | 87 | 1004.8 |
| 20260506032003 | 42 | 342 | 0.9 | 1.7 | 0.00 | 0.00 | 0.00 | 86 | 1004.6 |
| 20260506031003 | 41 | 342 | 0.9 | 1.7 | 0.00 | 0.00 | 0.00 | 85 | 1004.4 |
| 20260506030003 | 41 | 342 | 0.0 | 1.7 | 0.00 | 0.00 | 0.00 | 85 | 1004.2 |
| 20260506025003 | 41 | 342 | 0.0 | 1.7 | 0.00 | 0.00 | 0.00 | 84 | 1004.3 |
| 20260506024003 | 40 | 342 | 0.9 | 1.7 | 0.00 | 0.00 | 0.00 | 83 | 1004.1 |
| 20260506023003 | 40 | 342 | 0.0 | 1.7 | 0.00 | 0.00 | 0.00 | 82 | 1004.0 |
| 20260506022003 | 40 | 342 | 0.0 | 1.7 | 0.00 | 0.00 | 0.00 | 82 | 1003.9 |
| 20260506021003 | 40 | 342 | 0.9 | 1.7 | 0.00 | 0.00 | 0.00 | 81 | 1003.8 |
| 20260506020003 | 40 | 342 | 0.0 | 1.7 | 0.00 | 0.00 | 0.00 | 81 | 1003.7 |
| 20260506015003 | 40 | 342 | 0.0 | 0.9 | 0.00 | 0.00 | 0.00 | 80 | 1003.6 |
| 20260506014003 | 40 | 342 | 0.0 | 1.7 | 0.00 | 0.00 | 0.00 | 79 | 1003.6 |
| 20260506013003 | 40 | 342 | 0.0 | 1.7 | 0.00 | 0.00 | 0.00 | 79 | 1003.5 |
| 20260506012003 | 40 | 342 | 0.0 | 1.7 | 0.00 | 0.00 | 0.00 | 78 | 1003.4 |
| 20260506011003 | 40 | 342 | 0.0 | 1.7 | 0.00 | 0.00 | 0.00 | 78 | 1003.4 |
| 20260506010003 | 41 | 342 | 0.9 | 1.7 | 0.00 | 0.00 | 0.00 | 77 | 1003.4 |
| 20260506005003 | 41 | 342 | 0.0 | 1.7 | 0.00 | 0.00 | 0.00 | 77 | 1003.3 |
| 20260506004003 | 41 | 342 | 0.0 | 1.7 | 0.00 | 0.00 | 0.00 | 76 | 1003.3 |
| 20260506003003 | 41 | 342 | 0.9 | 1.7 | 0.00 | 0.00 | 0.00 | 75 | 1003.3 |
| 20260506002003 | 42 | 342 | 0.0 | 0.9 | 0.00 | 0.00 | 0.00 | 75 | 1003.2 |
| 20260506001003 | 42 | 342 | 0.9 | 2.6 | 0.00 | 0.00 | 0.00 | 74 | 1003.1 |
| 20260506000003 | 42 | 342 | 0.9 | 1.7 | 0.00 | 0.00 | 0.00 | 74 | 1003.0 |
| 20260505235003 | 42 | 342 | 0.0 | 2.6 | 0.00 | 0.00 | 0.00 | 73 | 1002.9 |
| 20260505234003 | 42 | 342 | 0.0 | 1.7 | 0.00 | 0.00 | 0.00 | 72 | 1002.8 |
| 20260505233003 | 42 | 342 | 0.0 | 1.7 | 0.00 | 0.00 | 0.00 | 72 | 1002.8 |
| 20260505232003 | 43 | 342 | 0.9 | 1.7 | 0.00 | 0.00 | 0.00 | 72 | 1002.9 |
| 20260505231003 | 43 | 342 | 0.9 | 2.6 | 0.00 | 0.00 | 0.00 | 72 | 1002.8 |
| 20260505230003 | 43 | 342 | 0.0 | 1.7 | 0.00 | 0.00 | 0.00 | 70 | 1002.8 |
| 20260505225003 | 44 | 342 | 0.9 | 1.7 | 0.00 | 0.00 | 0.00 | 70 | 1002.8 |
| 20260505224003 | 44 | 342 | 0.0 | 1.7 | 0.00 | 0.00 | 0.00 | 70 | 1002.7 |
| 20260505223003 | 44 | 342 | 0.9 | 2.6 | 0.00 | 0.00 | 0.00 | 70 | 1002.8 |
| 20260505222003 | 44 | 342 | 0.9 | 3.5 | 0.00 | 0.00 | 0.00 | 70 | 1002.8 |
| 20260505221003 | 44 | 342 | 0.9 | 2.6 | 0.00 | 0.00 | 0.00 | 71 | 1002.7 |
| 20260505220003 | 44 | 342 | 0.9 | 1.7 | 0.00 | 0.00 | 0.00 | 71 | 1002.8 |
| 20260505215003 | 44 | 342 | 0.0 | 1.7 | 0.00 | 0.00 | 0.00 | 71 | 1002.8 |
| 20260505214003 | 44 | 342 | 0.9 | 1.7 | 0.00 | 0.00 | 0.00 | 71 | 1002.8 |
| 20260505213003 | 45 | 342 | 0.9 | 2.6 | 0.00 | 0.00 | 0.00 | 71 | 1002.8 |
| 20260505212003 | 45 | 342 | 0.9 | 2.6 | 0.00 | 0.00 | 0.00 | 72 | 1002.8 |
| 20260505211003 | 45 | 342 | 0.9 | 2.6 | 0.00 | 0.00 | 0.00 | 72 | 1002.7 |
| 20260505210004 | 45 | 342 | 0.9 | 1.7 | 0.00 | 0.00 | 0.00 | 72 | 1002.6 |
| 20260505205003 | 45 | 342 | 0.9 | 2.6 | 0.00 | 0.00 | 0.00 | 72 | 1002.7 |
| 20260505204003 | 45 | 342 | 0.9 | 2.6 | 0.00 | 0.00 | 0.00 | 72 | 1002.6 |
| 20260505203004 | 45 | 342 | 0.9 | 1.7 | 0.00 | 0.00 | 0.00 | 72 | 1002.6 |
| 20260505202003 | 45 | 342 | 0.9 | 1.7 | 0.00 | 0.00 | 0.00 | 72 | 1002.4 |
| 20260505201003 | 45 | 342 | 0.9 | 1.7 | 0.00 | 0.00 | 0.00 | 72 | 1002.4 |
| 20260505200003 | 46 | 342 | 0.9 | 2.6 | 0.00 | 0.00 | 0.00 | 72 | 1002.3 |
| 20260505195003 | 46 | 342 | 0.9 | 1.7 | 0.00 | 0.00 | 0.00 | 71 | 1002.3 |
| 20260505194003 | 46 | 342 | 0.0 | 1.7 | 0.00 | 0.00 | 0.00 | 71 | 1002.4 |
| 20260505193003 | 46 | 342 | 0.0 | 1.7 | 0.00 | 0.00 | 0.00 | 70 | 1002.3 |